Time;durP1;ratioP1;P1;durP2;ratioP2;P2;SDS_P1;SDS_P2;PMS_P1;PMS_P2;Temp;Humidity;BMP_temperature;BMP_pressure;BME280_temperature;BME280_humidity;BME280_pressure;Samples;Min_cycle;Max_cycle;Signal;HPM_P1;HPM_P2
2022/08/21 00:01:05;;;;;;;;;;;;;;;18.79;95.06;94708.81;5156715;27;1937;-49
2022/08/21 00:03:32;;;;;;;;;;;;;;;18.66;95.68;94712.47;5156985;27;1032;-49
2022/08/21 00:05:58;;;;;;;;;;;;;;;18.65;95.13;94713.53;5138486;27;1060;-49
2022/08/21 00:08:24;;;;;;;;;;;;;;;18.66;94.68;94712.47;5156689;27;1008;-49
2022/08/21 00:10:50;;;;;;;;;;;;;;;18.59;94.37;94715.25;5156698;27;1095;-49
2022/08/21 00:13:19;;;;;;;;;;;;;;;18.46;94.89;94720.78;5156560;27;956;-49
2022/08/21 00:15:46;;;;;;;;;;;;;;;18.51;94.72;94718.22;5156584;27;1012;-50
2022/08/21 00:18:12;;;;;;;;;;;;;;;18.51;94.85;94718.22;5156733;27;1038;-49
2022/08/21 00:20:38;;;;;;;;;;;;;;;18.47;95.18;94717.00;5156515;27;1909;-49
2022/08/21 00:23:05;;;;;;;;;;;;;;;18.49;96.46;94720.31;5156525;27;992;-49
2022/08/21 00:25:31;;;;;;;;;;;;;;;18.58;96.00;94720.88;5156372;27;980;-49
2022/08/21 00:27:57;;;;;;;;;;;;;;;18.52;95.34;94720.69;5156387;27;1075;-49
2022/08/21 00:30:25;;;;;;;;;;;;;;;18.52;94.97;94723.41;5156065;27;1028;-49
2022/08/21 00:32:51;;;;;;;;;;;;;;;18.49;95.35;94723.00;5156460;27;1076;-49
2022/08/21 00:35:18;;;;;;;;;;;;;;;18.53;94.99;94721.53;5156155;27;1047;-49
2022/08/21 00:37:44;;;;;;;;;;;;;;;18.50;95.05;94720.09;5156328;27;995;-49
2022/08/21 00:40:13;;;;;;;;;;;;;;;18.35;94.09;94727.72;5155935;27;2000;-49
2022/08/21 00:42:39;;;;;;;;;;;;;;;18.32;95.04;94725.44;5156135;27;1036;-49
2022/08/21 00:45:06;;;;;;;;;;;;;;;18.42;95.73;94725.78;5140701;27;1204;-49
2022/08/21 00:47:32;;;;;;;;;;;;;;;18.46;95.33;94726.19;5135255;27;1021;-49
2022/08/21 00:49:58;;;;;;;;;;;;;;;18.33;95.20;94714.41;5135261;27;967;-49
2022/08/21 00:52:26;;;;;;;;;;;;;;;18.33;96.64;94717.09;5135277;27;1095;-49
2022/08/21 00:54:53;;;;;;;;;;;;;;;18.36;97.65;94721.22;5135104;27;964;-49
2022/08/21 00:57:23;;;;;;;;;;;;;;;18.49;97.73;94723.84;5135474;27;1029;-49
2022/08/21 00:59:51;;;;;;;;;;;;;;;18.61;96.38;94715.00;5134780;27;1910;-49
2022/08/21 01:02:18;;;;;;;;;;;;;;;18.64;96.02;94706.44;5135170;27;963;-49
2022/08/21 01:04:44;;;;;;;;;;;;;;;18.61;96.54;94706.88;5134770;27;1028;-49
2022/08/21 01:07:10;;;;;;;;;;;;;;;18.63;95.76;94707.47;5133381;27;1156;-49
2022/08/21 01:09:37;;;;;;;;;;;;;;;18.46;95.11;94699.94;5134509;27;965;-49
2022/08/21 01:12:03;;;;;;;;;;;;;;;18.37;95.61;94706.66;5134757;27;1051;-49
2022/08/21 01:14:30;;;;;;;;;;;;;;;18.41;95.84;94698.94;5134594;27;1494;-49
2022/08/21 01:16:57;;;;;;;;;;;;;;;18.47;95.32;94698.03;5134788;27;1099;-49
2022/08/21 01:19:24;;;;;;;;;;;;;;;18.52;96.09;94699.03;5134752;27;1072;-49
2022/08/21 01:21:50;;;;;;;;;;;;;;;18.50;96.07;94711.16;5134677;27;1925;-49
2022/08/21 01:24:16;;;;;;;;;;;;;;;18.57;95.30;94706.50;5134656;27;1008;-49
2022/08/21 01:26:43;;;;;;;;;;;;;;;18.60;95.86;94700.63;5134335;27;1028;-49
2022/08/21 01:29:10;;;;;;;;;;;;;;;18.60;97.21;94689.81;5134619;27;999;-49
2022/08/21 01:31:36;;;;;;;;;;;;;;;18.60;98.19;94694.41;5134585;27;1075;-49
2022/08/21 01:34:03;;;;;;;;;;;;;;;18.61;97.22;94696.03;5134637;27;1111;-49
2022/08/21 01:36:29;;;;;;;;;;;;;;;18.43;96.50;94686.84;5134443;27;1080;-49
2022/08/21 01:38:55;;;;;;;;;;;;;;;18.29;96.54;94680.72;5134968;27;957;-49
2022/08/21 01:41:21;;;;;;;;;;;;;;;18.34;95.72;94688.16;5134047;27;1997;-49
2022/08/21 01:43:48;;;;;;;;;;;;;;;18.28;96.95;94691.75;5116348;28;1181;-49
2022/08/21 01:46:15;;;;;;;;;;;;;;;18.30;97.99;94695.88;5134343;27;1041;-49
2022/08/21 01:48:41;;;;;;;;;;;;;;;18.45;97.34;94692.84;5134328;28;1071;-49
2022/08/21 01:51:07;;;;;;;;;;;;;;;18.54;97.21;94702.34;5134201;28;958;-49
2022/08/21 01:53:35;;;;;;;;;;;;;;;18.46;97.80;94688.28;5134384;28;949;-49
2022/08/21 01:56:02;;;;;;;;;;;;;;;18.51;97.72;94689.25;5134070;28;1047;-49
2022/08/21 01:58:28;;;;;;;;;;;;;;;18.56;97.98;94687.78;5116127;28;1329;-50
2022/08/21 02:00:54;;;;;;;;;;;;;;;18.53;97.90;94687.19;5134131;28;1984;-49
2022/08/21 02:03:20;;;;;;;;;;;;;;;18.52;98.48;94673.88;5134282;28;995;-49
2022/08/21 02:05:46;;;;;;;;;;;;;;;18.51;98.36;94675.72;5134122;28;984;-49
2022/08/21 02:08:12;;;;;;;;;;;;;;;18.50;98.53;94678.66;5134165;28;964;-50
2022/08/21 02:10:38;;;;;;;;;;;;;;;18.51;98.09;94683.84;5133942;28;1185;-50
2022/08/21 02:13:04;;;;;;;;;;;;;;;18.34;98.11;94677.31;5134098;28;1063;-49
2022/08/21 02:15:31;;;;;;;;;;;;;;;18.36;98.33;94669.00;5134311;28;1011;-49
2022/08/21 02:17:58;;;;;;;;;;;;;;;18.33;98.48;94673.81;5134091;28;953;-49
2022/08/21 02:20:24;;;;;;;;;;;;;;;18.41;98.55;94671.88;5137096;27;1909;-49
2022/08/21 02:22:50;;;;;;;;;;;;;;;18.43;98.17;94681.41;5138022;27;1134;-49
2022/08/21 02:25:17;;;;;;;;;;;;;;;18.51;99.53;94683.84;5137971;27;1031;-49
2022/08/21 02:27:44;;;;;;;;;;;;;;;18.55;99.31;94673.41;5138110;27;992;-49
2022/08/21 02:30:12;;;;;;;;;;;;;;;18.54;100.00;94675.28;5138112;27;972;-49
2022/08/21 02:32:38;;;;;;;;;;;;;;;18.63;99.29;94670.44;5137772;27;1020;-49
2022/08/21 02:35:04;;;;;;;;;;;;;;;18.68;99.24;94669.75;5137821;27;1028;-49
2022/08/21 02:37:30;;;;;;;;;;;;;;;18.67;97.55;94671.63;5137751;27;1193;-49
2022/08/21 02:39:58;;;;;;;;;;;;;;;18.63;98.26;94665.00;5137721;27;2010;-49
2022/08/21 02:42:24;;;;;;;;;;;;;;;18.59;98.47;94662.97;5137498;27;1071;-49
2022/08/21 02:44:50;;;;;;;;;;;;;;;18.61;98.13;94661.69;5150978;27;1200;-49
2022/08/21 02:47:16;;;;;;;;;;;;;;;18.60;97.16;94657.31;5158150;27;1100;-49
2022/08/21 02:49:42;;;;;;;;;;;;;;;18.57;97.14;94668.59;5158355;27;1019;-49
2022/08/21 02:52:08;;;;;;;;;;;;;;;18.72;94.99;94663.69;5158191;27;1004;-50
2022/08/21 02:54:34;;;;;;;;;;;;;;;18.53;96.12;94670.94;5158238;27;1089;-49
2022/08/21 02:57:00;;;;;;;;;;;;;;;18.48;98.22;94673.47;5139917;27;1106;-49
2022/08/21 02:59:26;;;;;;;;;;;;;;;18.47;97.18;94684.50;5158039;27;1079;-49
2022/08/21 03:01:52;;;;;;;;;;;;;;;18.39;97.28;94679.38;5158063;27;1914;-49
2022/08/21 03:04:19;;;;;;;;;;;;;;;18.39;96.62;94676.69;5139652;27;1087;-49
2022/08/21 03:06:45;;;;;;;;;;;;;;;18.32;96.66;94674.03;5157959;27;1027;-49
2022/08/21 03:09:11;;;;;;;;;;;;;;;18.25;96.58;94670.53;5139487;27;1956;-49
2022/08/21 03:11:38;;;;;;;;;;;;;;;18.19;96.84;94683.06;5157824;27;1055;-49
2022/08/21 03:14:05;;;;;;;;;;;;;;;18.19;97.90;94676.81;5157764;27;985;-49
2022/08/21 03:16:31;;;;;;;;;;;;;;;18.23;98.26;94675.34;5157987;27;1040;-49
2022/08/21 03:18:57;;;;;;;;;;;;;;;18.19;97.52;94674.94;5157792;27;986;-49
2022/08/21 03:21:23;;;;;;;;;;;;;;;18.20;97.86;94668.50;5157702;27;1913;-49
2022/08/21 03:23:49;;;;;;;;;;;;;;;18.14;97.26;94680.22;5157471;27;976;-49
2022/08/21 03:26:15;;;;;;;;;;;;;;;18.07;96.49;94684.84;5139273;27;1107;-49
2022/08/21 03:28:41;;;;;;;;;;;;;;;18.01;96.92;94680.31;5157573;27;945;-49
2022/08/21 03:31:08;;;;;;;;;;;;;;;18.00;97.24;94689.44;5156623;27;1000;-49
2022/08/21 03:33:34;;;;;;;;;;;;;;;17.96;97.33;94683.66;5157341;27;1020;-49
2022/08/21 03:36:02;;;;;;;;;;;;;;;17.95;96.62;94677.41;5157541;27;949;-49
2022/08/21 03:38:30;;;;;;;;;;;;;;;17.95;97.02;94680.13;5157161;27;1015;-49
2022/08/21 03:40:56;;;;;;;;;;;;;;;17.96;97.09;94678.25;5157436;27;1905;-49
2022/08/21 03:43:22;;;;;;;;;;;;;;;17.89;96.45;94691.81;5156047;27;1843;-49
2022/08/21 03:45:48;;;;;;;;;;;;;;;17.87;96.63;94693.91;5136562;27;956;-49
2022/08/21 03:48:14;;;;;;;;;;;;;;;17.76;96.81;94700.81;5136319;27;1045;-49
2022/08/21 03:50:41;;;;;;;;;;;;;;;17.58;96.09;94700.69;5136508;27;1036;-49
2022/08/21 03:53:09;;;;;;;;;;;;;;;17.47;96.18;94706.75;5136169;27;1016;-49
2022/08/21 03:55:35;;;;;;;;;;;;;;;17.49;96.18;94710.94;5136348;27;1067;-49
2022/08/21 03:58:01;;;;;;;;;;;;;;;17.53;97.02;94709.44;5136089;27;1202;-50
2022/08/21 04:00:27;;;;;;;;;;;;;;;17.52;96.71;94710.47;5136188;27;1909;-49
2022/08/21 04:02:53;;;;;;;;;;;;;;;17.53;97.51;94705.94;5136105;27;961;-49
2022/08/21 04:05:26;;;;;;;;;;;;;;;17.56;97.39;94711.69;5136118;27;1968;-49
2022/08/21 04:07:57;;;;;;;;;;;;;;;17.59;96.73;94725.84;5136309;27;1031;-49
2022/08/21 04:10:24;;;;;;;;;;;;;;;17.45;95.91;94731.28;5117646;27;1372;-49
2022/08/21 04:12:51;;;;;;;;;;;;;;;17.40;96.86;94730.31;5135807;27;1052;-49
2022/08/21 04:15:17;;;;;;;;;;;;;;;17.43;97.51;94727.16;5136191;27;1017;-49
2022/08/21 04:17:44;;;;;;;;;;;;;;;17.56;97.60;94727.09;5135779;27;913;-49
2022/08/21 04:20:10;;;;;;;;;;;;;;;17.56;96.61;94721.69;5135635;27;1909;-49
2022/08/21 04:22:36;;;;;;;;;;;;;;;17.63;97.31;94722.50;5136040;27;965;-49
2022/08/21 04:25:02;;;;;;;;;;;;;;;17.72;98.19;94723.91;5135742;27;1052;-49
2022/08/21 04:27:28;;;;;;;;;;;;;;;17.83;97.57;94726.97;5117683;27;1023;-49
2022/08/21 04:29:54;;;;;;;;;;;;;;;17.82;97.07;94726.16;5135599;27;968;-49
2022/08/21 04:32:23;;;;;;;;;;;;;;;17.60;96.60;94731.03;5135542;27;1036;-49
2022/08/21 04:34:49;;;;;;;;;;;;;;;17.59;97.52;94734.78;5135267;27;1085;-49
2022/08/21 04:37:15;;;;;;;;;;;;;;;17.78;98.00;94729.50;5135649;27;1066;-49
2022/08/21 04:39:42;;;;;;;;;;;;;;;17.85;97.97;94733.88;5135399;27;1902;-49
2022/08/21 04:42:08;;;;;;;;;;;;;;;17.94;98.21;94731.72;5135508;27;1055;-49
2022/08/21 04:44:34;;;;;;;;;;;;;;;18.08;98.08;94735.16;5146305;27;1149;-49
2022/08/21 04:47:00;;;;;;;;;;;;;;;18.11;98.03;94740.97;5156089;27;1011;-49
2022/08/21 04:49:26;;;;;;;;;;;;;;;18.10;98.69;94741.22;5155676;27;1277;-49
2022/08/21 04:51:59;;;;;;;;;;;;;;;18.19;98.88;94741.75;5156225;27;1035;-49
2022/08/21 04:54:25;;;;;;;;;;;;;;;18.28;98.61;94745.88;5155890;27;1003;-49
2022/08/21 04:56:52;;;;;;;;;;;;;;;18.39;98.37;94739.75;5155881;27;1070;-49
2022/08/21 05:11:46;;;;;;;;;;;;;;;18.17;100.00;94750.09;4746614;27;2902360;-49
2022/08/21 05:14:12;;;;;;;;;;;;;;;18.38;100.00;94740.78;5131370;28;1871;-49
2022/08/21 05:16:38;;;;;;;;;;;;;;;18.56;100.00;94742.75;5131472;28;1032;-49
2022/08/21 05:19:05;;;;;;;;;;;;;;;18.65;100.00;94751.44;5131371;28;972;-48
2022/08/21 05:21:31;;;;;;;;;;;;;;;18.77;99.67;94746.13;5131642;28;1041;-49
2022/08/21 05:23:57;;;;;;;;;;;;;;;18.95;99.33;94756.19;5131376;28;969;-49
2022/08/21 05:26:23;;;;;;;;;;;;;;;19.18;98.80;94748.25;5131244;28;1991;-49
2022/08/21 05:28:49;;;;;;;;;;;;;;;19.28;98.32;94745.03;5131287;28;1058;-49
2022/08/21 05:31:15;;;;;;;;;;;;;;;19.53;96.04;94739.53;5130977;28;1028;-49
2022/08/21 05:33:41;;;;;;;;;;;;;;;19.66;96.26;94741.25;5131198;28;1122;-49
2022/08/21 05:36:07;;;;;;;;;;;;;;;19.68;96.56;94737.25;5131088;28;1030;-49
2022/08/21 05:38:32;;;;;;;;;;;;;;;19.75;95.23;94739.91;5131060;28;1024;-49
2022/08/21 05:40:58;;;;;;;;;;;;;;;19.85;94.47;94734.75;5130767;28;1009;-49
2022/08/21 05:43:24;;;;;;;;;;;;;;;19.98;93.98;94724.81;5130803;28;1308;-49
2022/08/21 05:45:50;;;;;;;;;;;;;;;20.00;94.12;94728.94;5130775;28;1071;-49
2022/08/21 05:48:21;;;;;;;;;;;;;;;19.90;94.28;94725.97;5130669;28;1901;-50
2022/08/21 05:50:47;;;;;;;;;;;;;;;20.01;92.91;94722.44;5131257;28;1083;-49
2022/08/21 05:53:14;;;;;;;;;;;;;;;20.17;90.80;94731.81;5130860;28;945;-50
2022/08/21 05:55:40;;;;;;;;;;;;;;;20.17;90.82;94725.59;5131098;28;1016;-50
2022/08/21 05:58:06;;;;;;;;;;;;;;;20.01;91.15;94730.56;5112447;28;1978;-50
2022/08/21 06:00:33;;;;;;;;;;;;;;;20.02;90.30;94724.09;5130451;28;968;-49
2022/08/21 06:02:59;;;;;;;;;;;;;;;19.87;89.95;94731.81;5130835;28;978;-49
2022/08/21 06:05:25;;;;;;;;;;;;;;;19.87;88.94;94729.13;5130478;28;1036;-49
2022/08/21 06:07:52;;;;;;;;;;;;;;;19.90;92.63;94720.53;5130651;28;2003;-50
2022/08/21 06:10:18;;;;;;;;;;;;;;;19.95;92.24;94725.25;5124829;28;1207;-50
2022/08/21 06:12:44;;;;;;;;;;;;;;;20.03;90.42;94728.50;5110171;28;1041;-50
2022/08/21 06:15:10;;;;;;;;;;;;;;;20.07;92.30;94729.69;5109701;28;1900;-49
2022/08/21 06:17:36;;;;;;;;;;;;;;;20.09;89.07;94721.31;5109454;28;1049;-49
2022/08/21 06:20:03;;;;;;;;;;;;;;;20.18;91.45;94724.50;5095609;28;1021;-49
2022/08/21 06:22:30;;;;;;;;;;;;;;;20.39;89.38;94723.13;5096400;28;974;-49
2022/08/21 06:24:56;;;;;;;;;;;;;;;20.79;89.01;94723.38;5096223;28;1076;-49
2022/08/21 06:27:21;;;;;;;;;;;;;;;21.21;87.28;94725.16;5096111;28;1910;-49
2022/08/21 06:29:47;;;;;;;;;;;;;;;21.50;85.71;94727.97;5096084;28;1020;-50
2022/08/21 06:32:14;;;;;;;;;;;;;;;21.73;83.61;94724.34;5078157;28;1072;-49
2022/08/21 06:34:40;;;;;;;;;;;;;;;21.95;82.31;94719.91;5096042;28;901;-50
2022/08/21 06:37:06;;;;;;;;;;;;;;;22.09;80.90;94716.88;5095972;28;1008;-50
2022/08/21 06:40:00;;;;;;;;;;;;;;;22.09;78.71;94714.16;5096246;28;1878;-50
2022/08/21 06:42:27;;;;;;;;;;;;;;;22.40;81.36;94715.56;5096247;28;965;-50
2022/08/21 06:44:53;;;;;;;;;;;;;;;22.60;81.83;94723.28;5082585;28;1224;-50
2022/08/21 06:47:19;;;;;;;;;;;;;;;22.39;79.67;94714.75;5075240;28;1901;-50
2022/08/21 06:49:45;;;;;;;;;;;;;;;22.00;81.85;94714.53;5075461;28;1067;-50
2022/08/21 06:52:12;;;;;;;;;;;;;;;21.61;83.79;94716.22;5075340;28;974;-50
2022/08/21 06:54:38;;;;;;;;;;;;;;;21.29;84.01;94718.50;5075401;28;1077;-50
2022/08/21 06:57:04;;;;;;;;;;;;;;;20.85;88.16;94716.16;5075647;28;977;-50
2022/08/21 06:59:31;;;;;;;;;;;;;;;20.64;88.13;94712.09;5075352;28;1881;-49
2022/08/21 07:01:58;;;;;;;;;;;;;;;21.20;88.20;94710.69;5075330;28;1035;-49
2022/08/21 07:04:24;;;;;;;;;;;;;;;22.50;82.28;94714.91;5057506;28;1008;-49
2022/08/21 07:06:50;;;;;;;;;;;;;;;23.20;78.96;94710.88;5075057;28;2019;-50
2022/08/21 07:09:16;;;;;;;;;;;;;;;23.74;76.15;94710.22;5075083;28;1035;-49
2022/08/21 07:11:43;;;;;;;;;;;;;;;24.07;75.99;94713.91;5074760;28;1081;-50
2022/08/21 07:14:09;;;;;;;;;;;;;;;24.26;72.19;94704.28;5075132;28;1092;-50
2022/08/21 07:16:35;;;;;;;;;;;;;;;24.38;69.18;94706.03;5074872;28;1209;-49
2022/08/21 07:19:01;;;;;;;;;;;;;;;24.21;71.57;94701.50;5075115;28;997;-49
2022/08/21 07:21:27;;;;;;;;;;;;;;;24.39;69.48;94705.78;5074781;28;948;-50
2022/08/21 07:23:53;;;;;;;;;;;;;;;24.65;70.48;94697.84;5074955;28;1094;-50
2022/08/21 07:26:21;;;;;;;;;;;;;;;24.93;72.22;94692.06;5074301;28;1979;-49
2022/08/21 07:28:47;;;;;;;;;;;;;;;25.03;69.57;94698.69;5074774;28;1864;-50
2022/08/21 07:31:14;;;;;;;;;;;;;;;25.04;67.79;94690.22;5073660;28;1151;-50
2022/08/21 07:33:41;;;;;;;;;;;;;;;24.86;71.25;94690.63;5074835;28;1040;-50
2022/08/21 07:36:07;;;;;;;;;;;;;;;25.11;68.14;94692.72;5074583;28;1063;-49
2022/08/21 07:38:33;;;;;;;;;;;;;;;25.26;69.03;94689.28;5074534;28;1039;-50
2022/08/21 07:40:59;;;;;;;;;;;;;;;25.26;68.72;94684.63;5074425;28;1178;-50
2022/08/21 07:43:26;;;;;;;;;;;;;;;25.33;67.60;94689.88;5075276;28;1210;-50
2022/08/21 07:45:53;;;;;;;;;;;;;;;25.18;67.26;94693.31;5094901;28;969;-49
2022/08/21 07:48:20;;;;;;;;;;;;;;;24.28;71.93;94680.28;5094474;28;1918;-49
2022/08/21 07:50:46;;;;;;;;;;;;;;;24.50;71.99;94691.13;5094547;28;1029;-50
2022/08/21 07:53:12;;;;;;;;;;;;;;;24.78;71.26;94686.47;5094365;28;974;-49
2022/08/21 07:55:38;;;;;;;;;;;;;;;24.96;67.23;94687.97;5094467;28;1001;-49
2022/08/21 07:58:04;;;;;;;;;;;;;;;25.16;65.05;94683.75;5094401;28;992;-49
2022/08/21 08:00:30;;;;;;;;;;;;;;;24.85;69.00;94683.50;5094616;28;1065;-50
2022/08/21 08:02:57;;;;;;;;;;;;;;;24.74;72.33;94677.97;5094341;28;977;-50
2022/08/21 08:05:24;;;;;;;;;;;;;;;24.99;68.53;94681.16;5094334;28;966;-50
2022/08/21 08:07:50;;;;;;;;;;;;;;;24.83;71.11;94686.50;5094074;28;2234;-51
2022/08/21 08:10:17;;;;;;;;;;;;;;;24.75;68.70;94674.13;5094300;28;1294;-51
2022/08/21 08:12:43;;;;;;;;;;;;;;;24.46;67.51;94675.53;5094013;28;1017;-49
2022/08/21 08:15:12;;;;;;;;;;;;;;;24.17;70.53;94675.81;5094211;28;1027;-50
2022/08/21 08:17:38;;;;;;;;;;;;;;;23.84;71.53;94674.06;5093810;28;1775;-50
2022/08/21 08:20:05;;;;;;;;;;;;;;;23.52;74.00;94672.88;5094064;28;1045;-50
2022/08/21 08:22:31;;;;;;;;;;;;;;;23.46;73.85;94667.59;5093898;28;1004;-50
2022/08/21 08:24:57;;;;;;;;;;;;;;;23.44;72.25;94667.84;5093928;28;1065;-49
2022/08/21 08:27:23;;;;;;;;;;;;;;;24.14;70.75;94671.66;5093855;28;1913;-49
2022/08/21 08:29:49;;;;;;;;;;;;;;;24.62;69.47;94662.84;5093940;28;1005;-50
2022/08/21 08:32:15;;;;;;;;;;;;;;;25.11;72.90;94670.84;5093678;28;1036;-49
2022/08/21 08:34:41;;;;;;;;;;;;;;;25.49;68.42;94669.69;5093844;28;1028;-50
2022/08/21 08:37:08;;;;;;;;;;;;;;;25.75;67.07;94667.09;5093524;28;1025;-50
2022/08/21 08:39:34;;;;;;;;;;;;;;;25.93;68.26;94659.50;5093663;28;1076;-50
2022/08/21 08:42:06;;;;;;;;;;;;;;;25.66;66.57;94655.81;5093700;28;1056;-50
2022/08/21 08:44:33;;;;;;;;;;;;;;;25.35;68.88;94654.06;5083174;28;1201;-50
2022/08/21 08:46:59;;;;;;;;;;;;;;;25.07;65.49;94645.91;5073339;28;2024;-50
2022/08/21 08:49:36;;;;;;;;;;;;;;;24.93;70.95;94653.78;5073231;28;1000;-50
2022/08/21 08:52:05;;;;;;;;;;;;;;;25.03;68.20;94646.72;5073408;28;1044;-50
2022/08/21 08:54:33;;;;;;;;;;;;;;;25.29;68.92;94647.75;5073471;28;1031;-50
2022/08/21 08:57:01;;;;;;;;;;;;;;;25.51;70.82;94653.03;5073315;28;1017;-50
2022/08/21 08:59:31;;;;;;;;;;;;;;;25.60;70.08;94648.69;5073280;28;1033;-50
2022/08/21 09:01:57;;;;;;;;;;;;;;;25.71;66.46;94641.34;5073499;28;1123;-51
2022/08/21 09:04:27;;;;;;;;;;;;;;;25.49;67.74;94636.84;5073052;28;1043;-51
2022/08/21 09:07:01;;;;;;;;;;;;;;;24.75;71.51;94635.88;5073186;28;1910;-50
2022/08/21 09:09:31;;;;;;;;;;;;;;;25.03;70.91;94636.59;5073293;28;996;-50
2022/08/21 09:11:59;;;;;;;;;;;;;;;25.33;68.67;94629.69;5073119;28;1085;-50
2022/08/21 09:14:33;;;;;;;;;;;;;;;25.61;68.68;94631.19;5073001;28;982;-51
2022/08/21 09:17:09;;;;;;;;;;;;;;;25.18;68.45;94630.41;5073134;28;982;-51
2022/08/21 09:19:40;;;;;;;;;;;;;;;24.97;71.62;94621.25;5055098;28;1237;-51
2022/08/21 09:22:17;;;;;;;;;;;;;;;24.96;71.43;94614.13;5073283;28;969;-50
2022/08/21 09:24:53;;;;;;;;;;;;;;;24.85;69.56;94613.25;5073129;28;988;-51
2022/08/21 09:27:20;;;;;;;;;;;;;;;24.80;71.40;94617.88;5072976;28;1910;-51
2022/08/21 09:29:48;;;;;;;;;;;;;;;24.82;70.38;94621.16;5072837;28;958;-50
2022/08/21 09:32:28;;;;;;;;;;;;;;;25.16;67.37;94618.09;5073137;28;957;-50
2022/08/21 09:34:57;;;;;;;;;;;;;;;25.42;69.11;94613.56;5072796;28;1016;-50
2022/08/21 09:37:23;;;;;;;;;;;;;;;25.46;67.47;94596.38;5072995;28;966;-50
2022/08/21 09:39:49;;;;;;;;;;;;;;;25.42;68.34;94599.88;5072792;28;1013;-50
2022/08/21 09:42:22;;;;;;;;;;;;;;;25.61;68.45;94592.03;5073268;28;1069;-50
2022/08/21 09:44:48;;;;;;;;;;;;;;;25.92;68.38;94597.63;5085552;28;1162;-50
2022/08/21 09:47:18;;;;;;;;;;;;;;;26.25;66.80;94593.53;5093104;28;1980;-50
2022/08/21 09:49:44;;;;;;;;;;;;;;;26.12;64.32;94592.16;5075046;28;1061;-50
2022/08/21 09:52:18;;;;;;;;;;;;;;;26.01;66.06;94585.88;5092924;28;1009;-50
2022/08/21 09:54:45;;;;;;;;;;;;;;;25.98;68.34;94591.06;5095696;28;1017;-50
2022/08/21 10:00:21;;;;;;;;;;;;;;;26.14;66.23;94584.47;5096687;28;958;-50
2022/08/21 10:02:47;;;;;;;;;;;;;;;26.10;66.23;94573.28;5096736;28;1044;-50
2022/08/21 10:05:15;;;;;;;;;;;;;;;26.27;68.75;94569.44;5096317;28;1009;-50
2022/08/21 10:07:42;;;;;;;;;;;;;;;26.37;68.13;94576.81;5096744;28;1914;-50
2022/08/21 10:10:13;;;;;;;;;;;;;;;26.43;66.28;94579.31;5096274;28;1254;-51
2022/08/21 10:12:39;;;;;;;;;;;;;;;26.01;68.19;94572.16;5096522;28;1107;-51
2022/08/21 10:15:12;;;;;;;;;;;;;;;25.97;69.34;94575.69;5096273;28;950;-50
2022/08/21 10:17:52;;;;;;;;;;;;;;;26.01;67.38;94579.53;5096418;28;1099;-57
2022/08/21 10:20:22;;;;;;;;;;;;;;;26.14;65.75;94567.22;5096367;28;1017;-49
2022/08/21 10:23:00;;;;;;;;;;;;;;;26.18;66.02;94568.31;5096530;28;1044;-52
2022/08/21 10:25:30;;;;;;;;;;;;;;;26.19;69.50;94562.59;5096145;28;986;-49
2022/08/21 10:28:20;;;;;;;;;;;;;;;26.28;68.60;94560.94;5096227;28;1914;-49
2022/08/21 10:30:58;;;;;;;;;;;;;;;26.15;70.53;94566.97;5085578;28;1239;-49
2022/08/21 10:33:47;;;;;;;;;;;;;;;26.01;69.01;94563.09;5092759;28;1225;-49
2022/08/21 10:36:19;;;;;;;;;;;;;;;25.93;70.23;94555.44;5083409;28;1777;-49
2022/08/21 10:38:53;;;;;;;;;;;;;;;26.08;68.86;94553.53;5095839;28;1060;-49
2022/08/21 10:41:19;;;;;;;;;;;;;;;26.24;68.33;94551.63;5094577;28;1019;-49
2022/08/21 10:43:51;;;;;;;;;;;;;;;26.25;68.16;94547.78;5091576;28;1260;-49
2022/08/21 10:46:36;;;;;;;;;;;;;;;26.14;69.85;94548.06;5073905;28;1902;-50
2022/08/21 10:49:22;;;;;;;;;;;;;;;26.02;69.37;94542.84;5074053;28;1041;-49
2022/08/21 10:52:07;;;;;;;;;;;;;;;25.80;69.59;94541.16;5060157;28;1267;-50
2022/08/21 10:54:39;;;;;;;;;;;;;;;26.00;69.70;94532.16;5073749;28;1049;-50
2022/08/21 10:57:09;;;;;;;;;;;;;;;26.04;70.84;94529.72;5073756;28;1052;-50
2022/08/21 10:59:41;;;;;;;;;;;;;;;26.18;70.79;94529.97;5074033;28;982;-50
2022/08/21 11:02:07;;;;;;;;;;;;;;;26.40;70.49;94524.22;5073014;28;1136;-49
2022/08/21 11:04:40;;;;;;;;;;;;;;;26.65;69.55;94513.25;5074209;28;1076;-49
2022/08/21 11:07:29;;;;;;;;;;;;;;;26.83;68.98;94514.56;5073244;28;1979;-49
2022/08/21 11:09:57;;;;;;;;;;;;;;;26.81;68.81;94510.47;5063182;28;2063;-50
2022/08/21 11:12:27;;;;;;;;;;;;;;;26.83;70.54;94516.50;5074353;28;1068;-49
2022/08/21 11:14:56;;;;;;;;;;;;;;;26.97;67.08;94513.97;5074026;28;1037;-49
2022/08/21 11:17:28;;;;;;;;;;;;;;;27.14;68.59;94498.00;5074041;28;985;-49
2022/08/21 11:20:03;;;;;;;;;;;;;;;27.28;68.75;94503.75;5072831;28;1061;-50
2022/08/21 11:22:48;;;;;;;;;;;;;;;27.26;67.85;94492.19;5074179;28;961;-50
2022/08/21 11:25:22;;;;;;;;;;;;;;;27.05;65.91;94492.28;5073928;28;984;-50
2022/08/21 11:28:05;;;;;;;;;;;;;;;27.11;69.07;94486.75;5074282;28;1992;-50
2022/08/21 11:30:39;;;;;;;;;;;;;;;27.19;67.21;94484.25;5074254;28;918;-50
2022/08/21 11:33:05;;;;;;;;;;;;;;;27.24;64.71;94486.13;5074393;28;996;-50
2022/08/21 11:35:50;;;;;;;;;;;;;;;27.25;65.45;94487.81;5074333;28;1004;-50
2022/08/21 11:38:26;;;;;;;;;;;;;;;27.12;65.73;94491.97;5074147;28;973;-50
2022/08/21 11:40:52;;;;;;;;;;;;;;;27.16;66.51;94484.00;5073774;28;1030;-50
2022/08/21 11:43:30;;;;;;;;;;;;;;;27.21;65.79;94484.78;5073603;28;1205;-50
2022/08/21 11:46:03;;;;;;;;;;;;;;;27.29;66.15;94485.34;5073410;28;906;-50
2022/08/21 11:48:53;;;;;;;;;;;;;;;27.14;65.46;94481.53;5073949;28;1902;-50
2022/08/21 11:51:22;;;;;;;;;;;;;;;27.05;65.08;94473.09;5065278;28;1118;-50
2022/08/21 11:53:52;;;;;;;;;;;;;;;26.86;66.17;94475.63;5073209;28;965;-50
2022/08/21 11:56:20;;;;;;;;;;;;;;;26.98;65.15;94480.78;5073305;28;1032;-50
2022/08/21 11:59:07;;;;;;;;;;;;;;;27.22;63.94;94488.34;5073388;28;1048;-49
2022/08/21 12:01:36;;;;;;;;;;;;;;;27.45;61.54;94497.84;5061398;28;1166;-49
2022/08/21 12:04:23;;;;;;;;;;;;;;;27.42;62.32;94492.94;5073224;28;1124;-49
2022/08/21 12:06:49;;;;;;;;;;;;;;;27.41;63.42;94486.66;5072413;28;1918;-49
2022/08/21 12:09:29;;;;;;;;;;;;;;;27.35;63.90;94468.56;5072707;28;1084;-49
2022/08/21 12:12:01;;;;;;;;;;;;;;;27.34;67.21;94469.66;5072808;28;1088;-50
2022/08/21 12:14:39;;;;;;;;;;;;;;;27.21;64.87;94478.50;5065467;28;1297;-50
2022/08/21 12:17:06;;;;;;;;;;;;;;;26.83;66.66;94491.81;5072726;28;1007;-50
2022/08/21 12:19:32;;;;;;;;;;;;;;;26.66;67.18;94481.97;5073262;28;922;-49
2022/08/21 12:21:58;;;;;;;;;;;;;;;26.38;65.73;94464.19;5073225;28;1053;-49
2022/08/21 12:24:27;;;;;;;;;;;;;;;25.94;67.24;94455.78;5072793;28;1131;-49
2022/08/21 12:26:55;;;;;;;;;;;;;;;25.67;67.68;94465.88;5072903;28;1989;-49
2022/08/21 12:29:21;;;;;;;;;;;;;;;25.40;67.67;94478.94;5073003;28;980;-49
2022/08/21 12:31:58;;;;;;;;;;;;;;;25.14;67.98;94476.94;5073108;28;977;-49
2022/08/21 12:34:58;;;;;;;;;;;;;;;24.90;69.34;94470.28;5073510;28;978;-48
2022/08/21 12:37:31;;;;;;;;;;;;;;;24.66;69.76;94480.84;5072919;28;1158;-49
2022/08/21 12:39:59;;;;;;;;;;;;;;;24.52;73.16;94494.16;5073498;28;1060;-48
2022/08/21 12:49:08;;;;;;;;;;;;;;;23.69;81.97;94487.19;4069305;27;2522076;-48
2022/08/21 12:51:43;;;;;;;;;;;;;;;23.64;84.65;94484.44;5172967;27;1083;-48
2022/08/21 12:54:09;;;;;;;;;;;;;;;23.59;82.70;94492.56;5173004;27;1048;-48
2022/08/21 12:56:35;;;;;;;;;;;;;;;23.42;82.49;94505.50;5172736;27;1059;-48
2022/08/21 12:59:05;;;;;;;;;;;;;;;23.18;86.08;94509.34;5173366;27;975;-48
2022/08/21 13:01:38;;;;;;;;;;;;;;;23.08;83.23;94508.41;5154645;27;1015;-48
2022/08/21 13:04:17;;;;;;;;;;;;;;;23.04;83.32;94507.28;5172763;27;1909;-48
2022/08/21 13:06:45;;;;;;;;;;;;;;;23.08;82.11;94509.22;5172820;27;1016;-48
2022/08/21 13:09:13;;;;;;;;;;;;;;;22.92;83.65;94519.09;5172779;27;1067;-49
2022/08/21 13:11:40;;;;;;;;;;;;;;;22.86;87.06;94511.94;5172706;27;996;-48
2022/08/21 13:14:13;;;;;;;;;;;;;;;22.89;85.34;94522.31;5172647;27;999;-48
2022/08/21 13:16:40;;;;;;;;;;;;;;;23.01;83.44;94522.19;5172517;27;1052;-49
2022/08/21 13:19:08;;;;;;;;;;;;;;;22.90;84.67;94501.38;5154089;27;1084;-48
2022/08/21 13:21:39;;;;;;;;;;;;;;;22.92;82.98;94510.09;5172365;27;1110;-49
2022/08/21 13:24:13;;;;;;;;;;;;;;;22.87;82.01;94507.31;5153722;27;1998;-49
2022/08/21 13:26:39;;;;;;;;;;;;;;;22.85;82.04;94504.84;5172513;27;968;-48
2022/08/21 13:29:07;;;;;;;;;;;;;;;22.85;83.50;94504.84;5172383;27;1200;-49